Time;durP1;ratioP1;P1;durP2;ratioP2;P2;SDS_P1;SDS_P2;PMS_P1;PMS_P2;Temp;Humidity;BMP_temperature;BMP_pressure;BME280_temperature;BME280_humidity;BME280_pressure;Samples;Min_cycle;Max_cycle;Signal;HPM_P1;HPM_P2
2021/12/06 00:00:39;;;;;;;;;;;;;;;;;;1906304;28;7096;-66
2021/12/06 00:01:40;;;;;;;;;;;;;;;;;;1906243;28;7029;-66
2021/12/06 00:02:38;;;;;;;;;;;;;;;;;;1906009;28;7029;-66
2021/12/06 00:03:43;;;;;;;;;;;;;;;;;;1906059;28;7034;-66
2021/12/06 00:04:40;;;;;;;;;;;;;;;;;;1906193;28;7009;-66
2021/12/06 00:05:38;;;;;;;;;;;;;;;;;;1904702;28;7361;-67
2021/12/06 00:06:38;;;;;;;;;;;;;;;;;;1905768;28;7120;-66
2021/12/06 00:07:38;;;;;;;;;;;;;;;;;;1906191;28;7009;-67
2021/12/06 00:08:35;;;;;;;;;;;;;;;;;;1905955;28;7112;-66
2021/12/06 00:09:33;;;;;;;;;;;;;;;;;;1906094;28;7092;-66
2021/12/06 00:10:30;;;;;;;;;;;;;;;;;;1905814;28;7100;-66
2021/12/06 00:11:28;;;;;;;;;;;;;;;;;;1905727;28;7009;-66
2021/12/06 00:12:25;;;;;;;;;;;;;;;;;;1905218;28;7009;-66
2021/12/06 00:13:23;;;;;;;;;;;;;;;;;;1906103;28;7017;-66
2021/12/06 00:14:27;;;;;;;;;;;;;;;;;;1908880;28;7013;-66
2021/12/06 00:15:26;;;;;;;;;;;;;;;;;;1912745;28;7025;-66
2021/12/06 00:16:24;;;;;;;;;;;;;;;;;;1911963;28;7033;-65
2021/12/06 00:17:22;;;;;;;;;;;;;;;;;;1912216;28;7009;-66
2021/12/06 00:18:19;;;;;;;;;;;;;;;;;;1905537;28;7104;-66
2021/12/06 00:19:17;;;;;;;;;;;;;;;;;;1905493;28;8034;-66
2021/12/06 00:20:15;;;;;;;;;;;;;;;;;;1910777;28;7009;-66
2021/12/06 00:21:13;;;;;;;;;;;;;;;;;;1911945;28;7025;-66
2021/12/06 00:22:14;;;;;;;;;;;;;;;;;;1911667;28;7084;-65
2021/12/06 00:23:12;;;;;;;;;;;;;;;;;;1904109;28;7117;-65
2021/12/06 00:24:09;;;;;;;;;;;;;;;;;;1905854;28;8090;-66
2021/12/06 00:25:09;;;;;;;;;;;;;;;;;;1913072;28;8173;-66
2021/12/06 00:26:10;;;;;;;;;;;;;;;;;;1904046;28;7309;-67
2021/12/06 00:27:08;;;;;;;;;;;;;;;;;;1906345;28;7153;-66
2021/12/06 00:28:05;;;;;;;;;;;;;;;;;;1912997;28;7009;-65
2021/12/06 00:29:03;;;;;;;;;;;;;;;;;;1912620;28;7005;-66
2021/12/06 00:30:01;;;;;;;;;;;;;;;;;;1912594;28;7005;-66
2021/12/06 00:30:59;;;;;;;;;;;;;;;;;;1913108;28;7030;-66
2021/12/06 00:31:57;;;;;;;;;;;;;;;;;;1913277;28;7113;-66
2021/12/06 00:32:54;;;;;;;;;;;;;;;;;;1913587;28;7033;-66
2021/12/06 00:33:58;;;;;;;;;;;;;;;;;;1911981;28;10179;-67
2021/12/06 00:34:55;;;;;;;;;;;;;;;;;;1912496;28;7013;-66
2021/12/06 00:35:56;;;;;;;;;;;;;;;;;;1913355;28;7038;-66
2021/12/06 00:37:05;;;;;;;;;;;;;;;;;;1912822;28;7100;-67
2021/12/06 00:38:02;;;;;;;;;;;;;;;;;;1913269;28;7339;-65
2021/12/06 00:39:02;;;;;;;;;;;;;;;;;;1913152;28;7096;-66
2021/12/06 00:40:01;;;;;;;;;;;;;;;;;;1912752;28;7009;-67
2021/12/06 00:40:59;;;;;;;;;;;;;;;;;;1906299;28;7021;-67
2021/12/06 00:41:57;;;;;;;;;;;;;;;;;;1913180;28;7088;-67
2021/12/06 00:42:54;;;;;;;;;;;;;;;;;;1904642;28;7145;-67
2021/12/06 00:43:52;;;;;;;;;;;;;;;;;;1905536;28;7005;-65
2021/12/06 00:44:49;;;;;;;;;;;;;;;;;;1905558;28;7010;-66
2021/12/06 00:45:47;;;;;;;;;;;;;;;;;;1905854;28;7009;-67
2021/12/06 00:46:44;;;;;;;;;;;;;;;;;;1905650;28;7013;-66
2021/12/06 00:47:42;;;;;;;;;;;;;;;;;;1909246;28;7006;-66
2021/12/06 00:48:39;;;;;;;;;;;;;;;;;;1909795;28;7300;-67
2021/12/06 00:49:37;;;;;;;;;;;;;;;;;;1906064;28;7005;-67
2021/12/06 00:50:36;;;;;;;;;;;;;;;;;;1905534;28;8035;-66
2021/12/06 00:51:35;;;;;;;;;;;;;;;;;;1905889;28;8110;-66
2021/12/06 00:52:33;;;;;;;;;;;;;;;;;;1905484;28;7009;-66
2021/12/06 00:53:30;;;;;;;;;;;;;;;;;;1904801;28;7204;-65
2021/12/06 00:54:30;;;;;;;;;;;;;;;;;;1904627;28;7097;-66
2021/12/06 00:55:27;;;;;;;;;;;;;;;;;;1905062;28;7006;-66
2021/12/06 00:56:25;;;;;;;;;;;;;;;;;;1904694;28;7009;-66
2021/12/06 00:57:23;;;;;;;;;;;;;;;;;;1906057;28;7046;-66
2021/12/06 00:58:20;;;;;;;;;;;;;;;;;;1906990;28;7146;-66
2021/12/06 00:59:18;;;;;;;;;;;;;;;;;;1906879;28;7042;-66
2021/12/06 01:00:19;;;;;;;;;;;;;;;;;;1909071;28;7096;-66
2021/12/06 01:01:17;;;;;;;;;;;;;;;;;;1906895;28;7018;-66
2021/12/06 01:02:16;;;;;;;;;;;;;;;;;;1907280;28;7364;-66
2021/12/06 01:03:18;;;;;;;;;;;;;;;;;;1907385;28;7092;-65
2021/12/06 01:04:16;;;;;;;;;;;;;;;;;;1907556;28;7129;-66
2021/12/06 01:05:13;;;;;;;;;;;;;;;;;;1907469;28;7152;-65
2021/12/06 01:06:12;;;;;;;;;;;;;;;;;;1909778;28;7001;-67
2021/12/06 01:07:11;;;;;;;;;;;;;;;;;;1913559;28;7097;-66
2021/12/06 01:08:08;;;;;;;;;;;;;;;;;;1913928;28;7988;-66
2021/12/06 01:09:06;;;;;;;;;;;;;;;;;;1914134;28;7009;-66
2021/12/06 01:10:06;;;;;;;;;;;;;;;;;;1914404;28;7009;-66
2021/12/06 01:11:06;;;;;;;;;;;;;;;;;;1914355;28;7108;-66
2021/12/06 01:12:04;;;;;;;;;;;;;;;;;;1914727;28;7319;-66
2021/12/06 01:13:03;;;;;;;;;;;;;;;;;;1907805;28;7013;-67
2021/12/06 01:14:01;;;;;;;;;;;;;;;;;;1910298;28;7312;-66
2021/12/06 01:14:59;;;;;;;;;;;;;;;;;;1905188;28;7025;-67
2021/12/06 01:15:57;;;;;;;;;;;;;;;;;;1905579;28;8029;-66
2021/12/06 01:16:54;;;;;;;;;;;;;;;;;;1905467;28;7041;-65
2021/12/06 01:17:52;;;;;;;;;;;;;;;;;;1906205;28;7046;-67
2021/12/06 01:18:49;;;;;;;;;;;;;;;;;;1905682;28;7047;-66
2021/12/06 01:19:48;;;;;;;;;;;;;;;;;;1912116;28;7009;-66
2021/12/06 01:20:54;;;;;;;;;;;;;;;;;;1906486;28;7045;-65
2021/12/06 01:22:05;;;;;;;;;;;;;;;;;;1905827;28;7376;-66
2021/12/06 01:23:06;;;;;;;;;;;;;;;;;;1905685;28;7120;-66
2021/12/06 01:24:03;;;;;;;;;;;;;;;;;;1906071;28;7092;-66
2021/12/06 01:25:05;;;;;;;;;;;;;;;;;;1906533;28;7088;-66
2021/12/06 01:40:09;;;;;;;;;;;;;;;;;;1909003;28;7244;-67
2021/12/06 01:41:07;;;;;;;;;;;;;;;;;;1914759;28;7045;-66
2021/12/06 01:42:06;;;;;;;;;;;;;;;;;;1906051;28;7005;-66
2021/12/06 01:43:05;;;;;;;;;;;;;;;;;;1906921;28;7124;-65
2021/12/06 01:44:08;;;;;;;;;;;;;;;;;;1907038;28;7320;-66
2021/12/06 01:45:06;;;;;;;;;;;;;;;;;;1906379;28;7006;-66
2021/12/06 01:46:03;;;;;;;;;;;;;;;;;;1906406;28;7296;-66
2021/12/06 01:47:05;;;;;;;;;;;;;;;;;;1906567;28;7005;-66
2021/12/06 01:48:02;;;;;;;;;;;;;;;;;;1906701;28;7037;-66
2021/12/06 01:49:00;;;;;;;;;;;;;;;;;;1906810;28;7093;-66
2021/12/06 01:50:11;;;;;;;;;;;;;;;;;;1906050;28;7084;-66
2021/12/06 01:51:08;;;;;;;;;;;;;;;;;;1907106;28;7030;-66
2021/12/06 01:52:09;;;;;;;;;;;;;;;;;;1906355;28;7034;-66
2021/12/06 01:53:07;;;;;;;;;;;;;;;;;;1906813;28;7009;-66
2021/12/06 01:54:06;;;;;;;;;;;;;;;;;;1906309;28;7093;-65
2021/12/06 01:55:07;;;;;;;;;;;;;;;;;;1906645;28;7005;-66
2021/12/06 01:56:04;;;;;;;;;;;;;;;;;;1906495;28;7078;-65
2021/12/06 01:57:02;;;;;;;;;;;;;;;;;;1906375;28;7013;-66
2021/12/06 01:58:00;;;;;;;;;;;;;;;;;;1906647;28;7006;-66
2021/12/06 01:58:58;;;;;;;;;;;;;;;;;;1906007;28;7009;-66
2021/12/06 01:59:55;;;;;;;;;;;;;;;;;;1910824;28;7763;-66
2021/12/06 02:00:53;;;;;;;;;;;;;;;;;;1910308;28;8051;-66
2021/12/06 02:01:52;;;;;;;;;;;;;;;;;;1905416;28;7013;-66
2021/12/06 02:02:50;;;;;;;;;;;;;;;;;;1906603;28;7142;-67
2021/12/06 02:03:47;;;;;;;;;;;;;;;;;;1906713;28;7084;-65
2021/12/06 02:04:45;;;;;;;;;;;;;;;;;;1912387;28;7153;-67
2021/12/06 02:05:44;;;;;;;;;;;;;;;;;;1913494;28;7276;-66
2021/12/06 02:06:42;;;;;;;;;;;;;;;;;;1914011;28;7005;-66
2021/12/06 02:07:39;;;;;;;;;;;;;;;;;;1914259;28;7001;-66
2021/12/06 02:08:37;;;;;;;;;;;;;;;;;;1913960;28;7005;-66
2021/12/06 02:09:34;;;;;;;;;;;;;;;;;;1913655;28;7181;-67
2021/12/06 02:10:33;;;;;;;;;;;;;;;;;;1914168;28;7108;-67
2021/12/06 02:11:33;;;;;;;;;;;;;;;;;;1913892;28;8019;-66
2021/12/06 02:12:31;;;;;;;;;;;;;;;;;;1914010;28;7100;-66
2021/12/06 02:13:35;;;;;;;;;;;;;;;;;;1914658;28;7005;-67
2021/12/06 02:15:40;;;;;;;;;;;;;;;;;;1912786;28;7009;-66
2021/12/06 02:16:55;;;;;;;;;;;;;;;;;;1904961;28;7009;-66
2021/12/06 02:18:05;;;;;;;;;;;;;;;;;;1904916;28;7013;-65
2021/12/06 02:19:05;;;;;;;;;;;;;;;;;;1906504;28;7010;-67
2021/12/06 02:20:14;;;;;;;;;;;;;;;;;;1906392;28;7025;-66
2021/12/06 02:21:18;;;;;;;;;;;;;;;;;;1911378;28;7054;-66
2021/12/06 02:22:20;;;;;;;;;;;;;;;;;;1904612;28;7002;-66
2021/12/06 02:23:18;;;;;;;;;;;;;;;;;;1905556;28;7113;-66
2021/12/06 02:24:16;;;;;;;;;;;;;;;;;;1904951;28;7287;-66
2021/12/06 02:25:16;;;;;;;;;;;;;;;;;;1906183;28;7042;-66
2021/12/06 02:26:14;;;;;;;;;;;;;;;;;;1905962;28;7046;-67
2021/12/06 02:27:13;;;;;;;;;;;;;;;;;;1906032;28;7057;-67
2021/12/06 02:28:11;;;;;;;;;;;;;;;;;;1905954;28;8039;-66
2021/12/06 02:29:09;;;;;;;;;;;;;;;;;;1906438;28;7042;-66
2021/12/06 02:30:07;;;;;;;;;;;;;;;;;;1904861;28;7010;-66
2021/12/06 02:31:05;;;;;;;;;;;;;;;;;;1906395;28;7096;-66
2021/12/06 02:32:09;;;;;;;;;;;;;;;;;;1906278;28;7002;-66
2021/12/06 02:33:06;;;;;;;;;;;;;;;;;;1905806;28;7005;-66
2021/12/06 02:34:04;;;;;;;;;;;;;;;;;;1905069;28;7002;-66
2021/12/06 02:35:05;;;;;;;;;;;;;;;;;;1906064;28;7152;-66
2021/12/06 02:36:06;;;;;;;;;;;;;;;;;;1905940;28;7135;-66
2021/12/06 02:37:04;;;;;;;;;;;;;;;;;;1905216;28;7356;-66
2021/12/06 02:38:06;;;;;;;;;;;;;;;;;;1906999;28;7002;-66
2021/12/06 02:39:08;;;;;;;;;;;;;;;;;;1907196;28;7037;-66
2021/12/06 02:40:09;;;;;;;;;;;;;;;;;;1906454;28;7009;-66
2021/12/06 02:41:08;;;;;;;;;;;;;;;;;;1906309;28;8017;-66
2021/12/06 02:42:07;;;;;;;;;;;;;;;;;;1912035;28;7109;-66
2021/12/06 02:43:07;;;;;;;;;;;;;;;;;;1913836;28;7005;-66
2021/12/06 02:44:04;;;;;;;;;;;;;;;;;;1913514;28;7025;-66
2021/12/06 02:45:04;;;;;;;;;;;;;;;;;;1914019;28;7153;-66
2021/12/06 02:46:03;;;;;;;;;;;;;;;;;;1914155;28;7380;-67
2021/12/06 02:47:00;;;;;;;;;;;;;;;;;;1914201;28;7399;-66
2021/12/06 02:48:00;;;;;;;;;;;;;;;;;;1914227;28;7304;-67
2021/12/06 02:48:58;;;;;;;;;;;;;;;;;;1907489;28;7022;-66
2021/12/06 02:49:55;;;;;;;;;;;;;;;;;;1909194;28;8062;-67
2021/12/06 02:50:54;;;;;;;;;;;;;;;;;;1913445;28;7049;-66
2021/12/06 02:51:52;;;;;;;;;;;;;;;;;;1913815;28;7138;-66
2021/12/06 02:52:53;;;;;;;;;;;;;;;;;;1913637;28;8115;-66
2021/12/06 02:53:50;;;;;;;;;;;;;;;;;;1913890;28;7137;-66
2021/12/06 02:54:55;;;;;;;;;;;;;;;;;;1914448;28;7010;-66
2021/12/06 02:55:57;;;;;;;;;;;;;;;;;;1914312;28;7135;-66
2021/12/06 02:57:07;;;;;;;;;;;;;;;;;;1914213;28;7001;-66
2021/12/06 02:58:14;;;;;;;;;;;;;;;;;;1906283;28;7140;-66
2021/12/06 02:59:12;;;;;;;;;;;;;;;;;;1906819;28;7005;-66
2021/12/06 03:00:10;;;;;;;;;;;;;;;;;;1912656;28;7021;-66
2021/12/06 03:01:14;;;;;;;;;;;;;;;;;;1914021;28;7002;-66
2021/12/06 03:02:17;;;;;;;;;;;;;;;;;;1913511;28;7033;-66
2021/12/06 03:03:16;;;;;;;;;;;;;;;;;;1912819;28;7121;-66
2021/12/06 03:04:14;;;;;;;;;;;;;;;;;;1906431;28;7009;-67
2021/12/06 03:05:12;;;;;;;;;;;;;;;;;;1907318;28;8127;-65
2021/12/06 03:06:09;;;;;;;;;;;;;;;;;;1913771;28;7009;-65
2021/12/06 03:07:09;;;;;;;;;;;;;;;;;;1913710;28;8063;-67
2021/12/06 03:08:07;;;;;;;;;;;;;;;;;;1906594;28;7225;-66
2021/12/06 03:09:08;;;;;;;;;;;;;;;;;;1906316;28;7096;-65
2021/12/06 03:10:07;;;;;;;;;;;;;;;;;;1905864;28;7005;-66
2021/12/06 03:11:07;;;;;;;;;;;;;;;;;;1906203;28;7002;-66
2021/12/06 03:12:07;;;;;;;;;;;;;;;;;;1907555;28;7088;-67
2021/12/06 03:13:05;;;;;;;;;;;;;;;;;;1913824;28;7009;-66
2021/12/06 03:14:04;;;;;;;;;;;;;;;;;;1910637;28;7005;-67
2021/12/06 03:15:04;;;;;;;;;;;;;;;;;;1906267;28;7150;-66
2021/12/06 03:16:03;;;;;;;;;;;;;;;;;;1905986;28;7160;-66
2021/12/06 03:17:01;;;;;;;;;;;;;;;;;;1907377;28;8062;-66
2021/12/06 03:17:59;;;;;;;;;;;;;;;;;;1905263;28;7005;-67
2021/12/06 03:18:57;;;;;;;;;;;;;;;;;;1905727;28;7054;-66
2021/12/06 03:19:56;;;;;;;;;;;;;;;;;;1911511;28;7017;-66
2021/12/06 03:20:53;;;;;;;;;;;;;;;;;;1912553;28;8035;-65
2021/12/06 03:21:51;;;;;;;;;;;;;;;;;;1913156;28;8058;-66
2021/12/06 03:22:48;;;;;;;;;;;;;;;;;;1904674;28;7121;-66
2021/12/06 03:23:46;;;;;;;;;;;;;;;;;;1906163;28;7029;-66
2021/12/06 03:24:45;;;;;;;;;;;;;;;;;;1905685;28;7013;-66
2021/12/06 03:25:43;;;;;;;;;;;;;;;;;;1903998;28;7129;-66
2021/12/06 03:26:41;;;;;;;;;;;;;;;;;;1905149;28;7092;-66
2021/12/06 03:27:39;;;;;;;;;;;;;;;;;;1905567;28;7025;-67
2021/12/06 03:28:38;;;;;;;;;;;;;;;;;;1905290;28;7065;-66
2021/12/06 03:29:35;;;;;;;;;;;;;;;;;;1904578;28;7005;-66
2021/12/06 03:30:32;;;;;;;;;;;;;;;;;;1908349;28;7189;-67
2021/12/06 03:31:30;;;;;;;;;;;;;;;;;;1910694;28;7009;-66
2021/12/06 03:32:27;;;;;;;;;;;;;;;;;;1906100;28;7021;-66
2021/12/06 03:33:25;;;;;;;;;;;;;;;;;;1905557;28;7325;-66
2021/12/06 03:34:28;;;;;;;;;;;;;;;;;;1905047;28;7010;-66
2021/12/06 03:35:26;;;;;;;;;;;;;;;;;;1905852;28;7372;-66
2021/12/06 03:36:25;;;;;;;;;;;;;;;;;;1905850;28;7156;-66
2021/12/06 03:37:22;;;;;;;;;;;;;;;;;;1905499;28;7062;-66
2021/12/06 03:38:20;;;;;;;;;;;;;;;;;;1912931;28;7380;-66
2021/12/06 03:39:23;;;;;;;;;;;;;;;;;;1904102;28;7017;-66
2021/12/06 03:40:20;;;;;;;;;;;;;;;;;;1905942;28;7017;-66
2021/12/06 03:41:19;;;;;;;;;;;;;;;;;;1906007;28;7396;-67
2021/12/06 03:42:18;;;;;;;;;;;;;;;;;;1905887;28;7159;-66
2021/12/06 03:43:15;;;;;;;;;;;;;;;;;;1906027;28;7033;-66
2021/12/06 03:44:13;;;;;;;;;;;;;;;;;;1905773;28;8035;-66
2021/12/06 03:45:12;;;;;;;;;;;;;;;;;;1905660;28;7134;-66
2021/12/06 03:46:10;;;;;;;;;;;;;;;;;;1905432;28;7152;-66
2021/12/06 03:47:28;;;;;;;;;;;;;;;;;;1907277;28;7034;-66
2021/12/06 03:48:25;;;;;;;;;;;;;;;;;;1911906;28;8037;-65
2021/12/06 03:49:23;;;;;;;;;;;;;;;;;;1906133;28;7009;-66
2021/12/06 03:50:20;;;;;;;;;;;;;;;;;;1906271;28;7009;-66
2021/12/06 03:51:18;;;;;;;;;;;;;;;;;;1906135;28;7041;-66
2021/12/06 03:52:16;;;;;;;;;;;;;;;;;;1905990;28;7120;-66
2021/12/06 03:53:13;;;;;;;;;;;;;;;;;;1906194;28;8050;-66
2021/12/06 03:54:16;;;;;;;;;;;;;;;;;;1906033;28;7029;-66
2021/12/06 03:55:14;;;;;;;;;;;;;;;;;;1905715;28;7005;-67
2021/12/06 03:56:13;;;;;;;;;;;;;;;;;;1906442;28;7379;-66
2021/12/06 03:57:10;;;;;;;;;;;;;;;;;;1906105;28;7241;-66
2021/12/06 03:58:08;;;;;;;;;;;;;;;;;;1905835;28;7972;-66
2021/12/06 03:59:06;;;;;;;;;;;;;;;;;;1905428;28;7005;-66
2021/12/06 04:00:05;;;;;;;;;;;;;;;;;;1911171;28;7005;-67
2021/12/06 04:01:04;;;;;;;;;;;;;;;;;;1909852;28;7013;-67
2021/12/06 04:02:02;;;;;;;;;;;;;;;;;;1904796;28;7312;-66
2021/12/06 04:03:00;;;;;;;;;;;;;;;;;;1905283;28;7005;-66
2021/12/06 04:03:58;;;;;;;;;;;;;;;;;;1906060;28;7009;-66
2021/12/06 04:04:56;;;;;;;;;;;;;;;;;;1905182;28;7313;-66
2021/12/06 04:05:54;;;;;;;;;;;;;;;;;;1904732;28;7105;-67
2021/12/06 04:06:52;;;;;;;;;;;;;;;;;;1905769;28;7092;-67
2021/12/06 04:07:50;;;;;;;;;;;;;;;;;;1912868;28;7088;-66
2021/12/06 04:08:47;;;;;;;;;;;;;;;;;;1913117;28;7042;-66
2021/12/06 04:09:45;;;;;;;;;;;;;;;;;;1913155;28;8047;-66
2021/12/06 04:10:42;;;;;;;;;;;;;;;;;;1910188;28;7092;-66
2021/12/06 04:11:40;;;;;;;;;;;;;;;;;;1905800;28;7088;-67
2021/12/06 04:12:38;;;;;;;;;;;;;;;;;;1905260;28;7276;-66
2021/12/06 04:13:36;;;;;;;;;;;;;;;;;;1905868;28;7038;-66
2021/12/06 04:14:34;;;;;;;;;;;;;;;;;;1910868;28;7192;-65
2021/12/06 04:15:31;;;;;;;;;;;;;;;;;;1912889;28;7984;-66
2021/12/06 04:16:30;;;;;;;;;;;;;;;;;;1912352;28;7013;-67
2021/12/06 04:17:31;;;;;;;;;;;;;;;;;;1905101;28;7117;-66
2021/12/06 04:18:29;;;;;;;;;;;;;;;;;;1905346;28;7317;-67
2021/12/06 04:19:26;;;;;;;;;;;;;;;;;;1905158;28;7017;-67
2021/12/06 04:20:24;;;;;;;;;;;;;;;;;;1905299;28;7009;-66
2021/12/06 04:21:23;;;;;;;;;;;;;;;;;;1905735;28;7046;-66
2021/12/06 04:22:21;;;;;;;;;;;;;;;;;;1905343;28;7203;-66
2021/12/06 04:23:19;;;;;;;;;;;;;;;;;;1905486;28;7109;-66
2021/12/06 04:24:17;;;;;;;;;;;;;;;;;;1905130;28;7088;-66
2021/12/06 04:25:17;;;;;;;;;;;;;;;;;;1904335;28;7107;-66
2021/12/06 04:26:15;;;;;;;;;;;;;;;;;;1905436;28;7009;-65
2021/12/06 04:27:14;;;;;;;;;;;;;;;;;;1903590;28;7022;-67
2021/12/06 04:28:14;;;;;;;;;;;;;;;;;;1905285;28;7100;-66
2021/12/06 04:29:12;;;;;;;;;;;;;;;;;;1904797;28;7100;-66
2021/12/06 04:30:11;;;;;;;;;;;;;;;;;;1905439;28;8084;-66
2021/12/06 04:31:08;;;;;;;;;;;;;;;;;;1905688;28;7014;-66
2021/12/06 04:32:06;;;;;;;;;;;;;;;;;;1905426;28;7096;-65
2021/12/06 04:33:05;;;;;;;;;;;;;;;;;;1907665;28;7253;-66
2021/12/06 04:34:03;;;;;;;;;;;;;;;;;;1906641;28;7014;-66
2021/12/06 04:35:08;;;;;;;;;;;;;;;;;;1907220;28;7207;-66
2021/12/06 04:36:05;;;;;;;;;;;;;;;;;;1907021;28;7109;-66
2021/12/06 04:37:03;;;;;;;;;;;;;;;;;;1906963;28;7013;-66
2021/12/06 04:38:01;;;;;;;;;;;;;;;;;;1907143;28;7013;-67
2021/12/06 04:38:59;;;;;;;;;;;;;;;;;;1907123;28;7108;-67
2021/12/06 04:39:56;;;;;;;;;;;;;;;;;;1906994;28;7046;-66
2021/12/06 04:40:54;;;;;;;;;;;;;;;;;;1908128;28;7125;-66
2021/12/06 04:41:51;;;;;;;;;;;;;;;;;;1907630;28;8073;-67
2021/12/06 04:42:49;;;;;;;;;;;;;;;;;;1905871;28;7050;-66
2021/12/06 04:43:47;;;;;;;;;;;;;;;;;;1906887;28;7113;-66
2021/12/06 04:44:44;;;;;;;;;;;;;;;;;;1907237;28;7555;-66
2021/12/06 04:45:42;;;;;;;;;;;;;;;;;;1907132;28;7380;-65
2021/12/06 04:46:40;;;;;;;;;;;;;;;;;;1907093;28;7013;-66
2021/12/06 04:47:37;;;;;;;;;;;;;;;;;;1907234;28;7042;-66
2021/12/06 04:48:35;;;;;;;;;;;;;;;;;;1907637;28;7096;-66
2021/12/06 04:49:33;;;;;;;;;;;;;;;;;;1907497;28;7364;-66
2021/12/06 04:50:33;;;;;;;;;;;;;;;;;;1906840;28;7117;-66
2021/12/06 04:51:31;;;;;;;;;;;;;;;;;;1905672;28;7013;-66
2021/12/06 04:52:28;;;;;;;;;;;;;;;;;;1907274;28;7165;-66
2021/12/06 04:53:28;;;;;;;;;;;;;;;;;;1906950;28;7010;-66
2021/12/06 04:54:34;;;;;;;;;;;;;;;;;;1906927;28;7323;-66
2021/12/06 04:55:43;;;;;;;;;;;;;;;;;;1906724;28;7044;-66
2021/12/06 04:56:44;;;;;;;;;;;;;;;;;;1909906;28;7107;-67
2021/12/06 04:57:45;;;;;;;;;;;;;;;;;;1914595;28;7088;-66
2021/12/06 04:58:51;;;;;;;;;;;;;;;;;;1914954;28;7005;-65
2021/12/06 04:59:57;;;;;;;;;;;;;;;;;;1911124;28;7092;-66
2021/12/06 05:01:04;;;;;;;;;;;;;;;;;;1921644;28;7165;-65
2021/12/06 05:02:05;;;;;;;;;;;;;;;;;;1921960;28;7005;-67
2021/12/06 05:03:05;;;;;;;;;;;;;;;;;;1907101;28;7042;-66
2021/12/06 05:04:05;;;;;;;;;;;;;;;;;;1907424;28;7005;-67
2021/12/06 05:05:06;;;;;;;;;;;;;;;;;;1906745;28;7006;-67
2021/12/06 05:06:09;;;;;;;;;;;;;;;;;;1906984;28;7284;-66
2021/12/06 05:07:11;;;;;;;;;;;;;;;;;;1907197;28;7025;-66
2021/12/06 05:08:15;;;;;;;;;;;;;;;;;;1905117;28;7029;-66
2021/12/06 05:09:15;;;;;;;;;;;;;;;;;;1907319;28;7014;-66
2021/12/06 05:10:14;;;;;;;;;;;;;;;;;;1907362;28;7013;-66
2021/12/06 05:11:12;;;;;;;;;;;;;;;;;;1912437;28;7033;-66
2021/12/06 05:12:12;;;;;;;;;;;;;;;;;;1914949;28;7009;-66
2021/12/06 05:13:10;;;;;;;;;;;;;;;;;;1915149;28;7022;-66
2021/12/06 05:14:07;;;;;;;;;;;;;;;;;;1913752;28;7005;-66
2021/12/06 05:15:06;;;;;;;;;;;;;;;;;;1905763;28;7009;-66
2021/12/06 05:16:03;;;;;;;;;;;;;;;;;;1906694;28;7001;-66
2021/12/06 05:17:01;;;;;;;;;;;;;;;;;;1906512;28;8032;-66
2021/12/06 05:17:58;;;;;;;;;;;;;;;;;;1906187;28;7092;-66
2021/12/06 05:18:56;;;;;;;;;;;;;;;;;;1906727;28;7105;-67
2021/12/06 05:19:54;;;;;;;;;;;;;;;;;;1907690;28;7376;-66
2021/12/06 05:20:51;;;;;;;;;;;;;;;;;;1906698;28;7268;-67
2021/12/06 05:21:49;;;;;;;;;;;;;;;;;;1905132;28;7038;-67
2021/12/06 05:22:47;;;;;;;;;;;;;;;;;;1906866;28;8059;-67
2021/12/06 05:23:45;;;;;;;;;;;;;;;;;;1906779;28;7049;-67
2021/12/06 05:24:45;;;;;;;;;;;;;;;;;;1906669;28;7225;-66
2021/12/06 05:25:42;;;;;;;;;;;;;;;;;;1905846;28;7088;-66
2021/12/06 05:26:39;;;;;;;;;;;;;;;;;;1911457;28;7006;-66
2021/12/06 05:27:37;;;;;;;;;;;;;;;;;;1908785;28;7005;-66
2021/12/06 05:28:41;;;;;;;;;;;;;;;;;;1906624;28;7096;-66
2021/12/06 05:29:43;;;;;;;;;;;;;;;;;;1906612;28;8035;-67
2021/12/06 05:30:43;;;;;;;;;;;;;;;;;;1906883;28;7013;-66
2021/12/06 05:31:41;;;;;;;;;;;;;;;;;;1906818;28;7121;-67
2021/12/06 05:32:41;;;;;;;;;;;;;;;;;;1906895;28;7092;-67
2021/12/06 05:33:40;;;;;;;;;;;;;;;;;;1905959;28;7050;-66
2021/12/06 05:34:40;;;;;;;;;;;;;;;;;;1906390;28;7074;-67
2021/12/06 05:35:38;;;;;;;;;;;;;;;;;;1907564;28;7010;-67
2021/12/06 05:36:35;;;;;;;;;;;;;;;;;;1907041;28;8112;-66
2021/12/06 05:37:35;;;;;;;;;;;;;;;;;;1907228;28;7033;-67
2021/12/06 05:38:32;;;;;;;;;;;;;;;;;;1907115;28;7042;-67
2021/12/06 05:39:30;;;;;;;;;;;;;;;;;;1907261;28;8105;-66
2021/12/06 05:40:30;;;;;;;;;;;;;;;;;;1905703;28;7206;-66
2021/12/06 05:41:27;;;;;;;;;;;;;;;;;;1907410;28;8035;-66
2021/12/06 05:42:26;;;;;;;;;;;;;;;;;;1907231;28;7304;-66
2021/12/06 05:43:24;;;;;;;;;;;;;;;;;;1907220;28;7128;-66
2021/12/06 05:44:21;;;;;;;;;;;;;;;;;;1907085;28;8710;-66
2021/12/06 05:45:21;;;;;;;;;;;;;;;;;;1906584;28;7034;-66
2021/12/06 05:46:19;;;;;;;;;;;;;;;;;;1907072;28;7005;-66
2021/12/06 05:47:16;;;;;;;;;;;;;;;;;;1907304;28;7092;-66
2021/12/06 05:48:14;;;;;;;;;;;;;;;;;;1906932;28;7292;-66
2021/12/06 05:49:11;;;;;;;;;;;;;;;;;;1905901;28;7041;-67
2021/12/06 05:50:09;;;;;;;;;;;;;;;;;;1907232;28;7006;-66
2021/12/06 05:51:07;;;;;;;;;;;;;;;;;;1907749;28;8035;-66
2021/12/06 05:52:05;;;;;;;;;;;;;;;;;;1905884;28;7013;-65
2021/12/06 05:53:03;;;;;;;;;;;;;;;;;;1907064;28;7009;-67
2021/12/06 05:54:00;;;;;;;;;;;;;;;;;;1907060;28;7005;-66
2021/12/06 05:54:58;;;;;;;;;;;;;;;;;;1907010;28;7033;-66
2021/12/06 05:55:55;;;;;;;;;;;;;;;;;;1907149;28;7096;-66
2021/12/06 05:56:53;;;;;;;;;;;;;;;;;;1906962;28;7088;-66
2021/12/06 05:57:51;;;;;;;;;;;;;;;;;;1907326;28;7009;-66
2021/12/06 05:58:49;;;;;;;;;;;;;;;;;;1906959;28;7025;-66
2021/12/06 05:59:47;;;;;;;;;;;;;;;;;;1910672;28;7092;-67
2021/12/06 06:00:45;;;;;;;;;;;;;;;;;;1914175;28;7009;-66
2021/12/06 06:01:43;;;;;;;;;;;;;;;;;;1914484;28;7021;-66
2021/12/06 06:02:41;;;;;;;;;;;;;;;;;;1914166;28;7096;-67
2021/12/06 06:03:38;;;;;;;;;;;;;;;;;;1914558;28;7002;-66
2021/12/06 06:04:37;;;;;;;;;;;;;;;;;;1914705;28;7113;-66
2021/12/06 06:05:35;;;;;;;;;;;;;;;;;;1910263;28;7105;-65
2021/12/06 06:06:33;;;;;;;;;;;;;;;;;;1907211;28;7005;-66
2021/12/06 06:07:31;;;;;;;;;;;;;;;;;;1906611;28;7135;-66
2021/12/06 06:08:28;;;;;;;;;;;;;;;;;;1906760;28;7033;-66
2021/12/06 06:09:26;;;;;;;;;;;;;;;;;;1907528;28;7013;-66
2021/12/06 06:10:23;;;;;;;;;;;;;;;;;;1914638;28;7117;-66
2021/12/06 06:11:21;;;;;;;;;;;;;;;;;;1921622;28;7013;-66
2021/12/06 06:12:18;;;;;;;;;;;;;;;;;;1921566;28;7113;-66
2021/12/06 06:13:15;;;;;;;;;;;;;;;;;;1915276;28;7045;-67
2021/12/06 06:14:13;;;;;;;;;;;;;;;;;;1909732;28;7036;-66
2021/12/06 06:15:11;;;;;;;;;;;;;;;;;;1906809;28;7319;-65
2021/12/06 06:16:10;;;;;;;;;;;;;;;;;;1905024;28;7108;-66
2021/12/06 06:17:13;;;;;;;;;;;;;;;;;;1905332;28;7096;-66
2021/12/06 06:18:11;;;;;;;;;;;;;;;;;;1906180;28;7099;-66
2021/12/06 06:19:08;;;;;;;;;;;;;;;;;;1907031;28;7024;-66
2021/12/06 06:20:08;;;;;;;;;;;;;;;;;;1906430;28;7125;-66
2021/12/06 06:21:05;;;;;;;;;;;;;;;;;;1913425;28;7096;-67
2021/12/06 06:22:03;;;;;;;;;;;;;;;;;;1913155;28;7116;-66
2021/12/06 06:23:01;;;;;;;;;;;;;;;;;;1906997;28;7081;-66
2021/12/06 06:23:58;;;;;;;;;;;;;;;;;;1906913;28;7368;-66
2021/12/06 06:24:55;;;;;;;;;;;;;;;;;;1906803;28;7005;-66
2021/12/06 06:25:53;;;;;;;;;;;;;;;;;;1906837;28;7009;-66
2021/12/06 06:26:51;;;;;;;;;;;;;;;;;;1905349;28;7013;-65
2021/12/06 06:27:49;;;;;;;;;;;;;;;;;;1906169;28;7040;-66
2021/12/06 06:28:46;;;;;;;;;;;;;;;;;;1906468;28;7096;-66
2021/12/06 06:29:43;;;;;;;;;;;;;;;;;;1905118;28;7038;-66
2021/12/06 06:30:42;;;;;;;;;;;;;;;;;;1911280;28;7092;-67
2021/12/06 06:31:39;;;;;;;;;;;;;;;;;;1914203;28;7088;-66
2021/12/06 06:32:37;;;;;;;;;;;;;;;;;;1914156;28;8038;-65
2021/12/06 06:33:35;;;;;;;;;;;;;;;;;;1913081;28;7084;-64
2021/12/06 06:34:33;;;;;;;;;;;;;;;;;;1905816;28;7009;-66
2021/12/06 06:35:30;;;;;;;;;;;;;;;;;;1907261;28;7367;-67
2021/12/06 06:36:28;;;;;;;;;;;;;;;;;;1905590;28;7100;-63
2021/12/06 06:37:26;;;;;;;;;;;;;;;;;;1909125;28;7025;-64
2021/12/06 06:38:23;;;;;;;;;;;;;;;;;;1913781;28;7005;-63
2021/12/06 06:39:22;;;;;;;;;;;;;;;;;;1905564;28;7092;-66
2021/12/06 06:40:19;;;;;;;;;;;;;;;;;;1906374;28;7088;-66
2021/12/06 06:41:17;;;;;;;;;;;;;;;;;;1906778;28;7088;-66
2021/12/06 06:42:14;;;;;;;;;;;;;;;;;;1906884;28;7164;-66
2021/12/06 06:43:12;;;;;;;;;;;;;;;;;;1906557;28;8099;-66
2021/12/06 06:44:11;;;;;;;;;;;;;;;;;;1906728;28;7096;-66
2021/12/06 06:45:11;;;;;;;;;;;;;;;;;;1912447;28;7088;-66
2021/12/06 06:46:08;;;;;;;;;;;;;;;;;;1914078;28;7005;-66
2021/12/06 06:47:06;;;;;;;;;;;;;;;;;;1914156;28;8036;-66
2021/12/06 06:48:03;;;;;;;;;;;;;;;;;;1914248;28;7371;-66
2021/12/06 06:49:01;;;;;;;;;;;;;;;;;;1907847;28;7092;-66
2021/12/06 06:49:59;;;;;;;;;;;;;;;;;;1907323;28;7005;-67
2021/12/06 06:50:57;;;;;;;;;;;;;;;;;;1906562;28;7137;-66
2021/12/06 06:51:54;;;;;;;;;;;;;;;;;;1906545;28;7161;-66
2021/12/06 06:52:53;;;;;;;;;;;;;;;;;;1906442;28;7172;-66
2021/12/06 06:53:50;;;;;;;;;;;;;;;;;;1909492;28;7096;-66
2021/12/06 06:54:48;;;;;;;;;;;;;;;;;;1913659;28;7006;-66
2021/12/06 06:55:45;;;;;;;;;;;;;;;;;;1913733;28;7005;-67
2021/12/06 06:56:45;;;;;;;;;;;;;;;;;;1914719;28;8070;-66
2021/12/06 06:57:44;;;;;;;;;;;;;;;;;;1914048;28;7117;-66
2021/12/06 06:58:41;;;;;;;;;;;;;;;;;;1913685;28;7088;-67
2021/12/06 06:59:39;;;;;;;;;;;;;;;;;;1911361;28;7096;-66
2021/12/06 07:00:40;;;;;;;;;;;;;;;;;;1906566;28;7201;-66
2021/12/06 07:01:37;;;;;;;;;;;;;;;;;;1905344;28;7092;-66
2021/12/06 07:02:38;;;;;;;;;;;;;;;;;;1906082;28;7100;-66
2021/12/06 07:03:35;;;;;;;;;;;;;;;;;;1906243;28;7117;-66
2021/12/06 07:04:34;;;;;;;;;;;;;;;;;;1906619;28;7134;-66